CheckWX is a tool to help pilots better visualize weather data.  It is not intended as a substitute for an official pre-flight weather briefing.

08:52:01 UTC

KPYX METAR
Perryton Ochiltree County Airport
Perryton, Texas, USA
Current

17 mins ago

KPYX 280835Z AUTO 31006KT 10SM BKN110 12/07 A3004 RMK AO2 T01150067
Observed
May-28 @ 08:35 UTC
Wind
  • 310° at 6 KTS
Visibility
Flight Rules
VFR
Cloud Levels
  • Broken at 11,000' AGL
Temperature
12°C / 54°F
Dewpoint
C / 45°F
Humidity
72%
Altimeter
30.04" Hg
Pressure
1017.32 hPa
Previous

37 mins ago

KPYX 280815Z AUTO 30004KT 10SM SCT110 11/06 A3003 RMK AO2 T01120063
Observed
May-28 @ 08:15 UTC
Wind
  • 300° at 4 KTS
Visibility
Flight Rules
VFR
Cloud Levels
  • Scattered at 11,000' AGL
Temperature
11°C / 52°F
Dewpoint
C / 43°F
Humidity
72%
Altimeter
30.03" Hg
Pressure
1016.92 hPa
Previous

57 mins ago

KPYX 280755Z AUTO 33007KT 10SM CLR 11/06 A3002 RMK AO2 T01070062
Observed
May-28 @ 07:55 UTC
Wind
  • 330° at 7 KTS
Visibility
Flight Rules
VFR
Cloud Levels
  • Clear skies
Temperature
11°C / 52°F
Dewpoint
C / 43°F
Humidity
72%
Altimeter
30.02" Hg
Pressure
1016.62 hPa